Time;durP1;ratioP1;P1;durP2;ratioP2;P2;SDS_P1;SDS_P2;PMS_P1;PMS_P2;Temp;Humidity;BMP_temperature;BMP_pressure;BME280_temperature;BME280_humidity;BME280_pressure;Samples;Min_cycle;Max_cycle;Signal;HPM_P1;HPM_P2
2022/04/09 00:02:08;;;;;;;20.33;3.90;;;5.80;65.70;;;;;;5062499;28;25167;-74
2022/04/09 00:04:34;;;;;;;15.75;3.90;;;5.90;65.90;;;;;;5059358;28;25076;-73
2022/04/09 00:06:59;;;;;;;27.65;4.45;;;5.80;66.30;;;;;;5059059;28;25065;-73
2022/04/09 00:09:25;;;;;;;26.45;4.45;;;5.80;66.30;;;;;;5044809;28;25122;-74
2022/04/09 00:11:51;;;;;;;24.63;4.57;;;5.80;66.20;;;;;;5063725;28;25107;-74
2022/04/09 00:14:17;;;;;;;23.70;3.83;;;5.90;65.50;;;;;;5061843;28;25080;-74
2022/04/09 00:16:43;;;;;;;24.38;3.88;;;5.90;64.50;;;;;;5045052;28;25051;-73
2022/04/09 00:19:09;;;;;;;29.15;4.63;;;5.90;63.50;;;;;;5070800;28;25111;-73
2022/04/09 00:21:35;;;;;;;24.85;5.40;;;5.90;63.20;;;;;;5066903;28;25098;-73
2022/04/09 00:24:00;;;;;;;23.58;4.57;;;5.90;62.40;;;;;;5064757;28;25126;-74
2022/04/09 00:26:26;;;;;;;24.98;3.95;;;5.90;61.70;;;;;;5067264;28;25068;-73
2022/04/09 00:28:52;;;;;;;21.55;4.15;;;6.00;61.10;;;;;;5065585;28;25077;-73
2022/04/09 00:31:17;;;;;;;21.75;4.18;;;6.00;61.10;;;;;;5056817;28;25156;-74
2022/04/09 00:33:43;;;;;;;16.90;3.67;;;6.00;61.20;;;;;;5056454;28;25050;-71
2022/04/09 00:36:08;;;;;;;15.75;3.40;;;6.00;61.50;;;;;;5061584;28;25071;-73
2022/04/09 00:38:34;;;;;;;20.15;3.30;;;6.00;61.30;;;;;;5057447;28;25047;-74
2022/04/09 00:40:59;;;;;;;11.90;3.03;;;5.90;62.10;;;;;;5069284;28;25068;-75
2022/04/09 00:43:25;;;;;;;15.55;2.70;;;5.80;62.30;;;;;;5065171;28;25103;-72
2022/04/09 00:45:51;;;;;;;19.55;2.90;;;5.80;62.10;;;;;;5066473;28;25068;-73
2022/04/09 00:48:20;;;;;;;14.38;2.65;;;5.70;62.40;;;;;;5054364;28;25070;-74
2022/04/09 00:50:47;;;;;;;15.75;3.00;;;5.70;63.00;;;;;;5040500;28;25089;-74
2022/04/09 00:53:15;;;;;;;17.77;3.35;;;5.70;63.60;;;;;;5066954;28;25095;-74
2022/04/09 00:58:29;;;;;;;20.67;4.03;;;5.60;64.90;;;;;;5070807;28;25075;-75
2022/04/09 01:00:54;;;;;;;17.27;3.63;;;5.60;65.10;;;;;;5065825;28;25074;-74
2022/04/09 01:03:21;;;;;;;24.80;3.90;;;5.60;65.10;;;;;;5079547;28;25058;-76
2022/04/09 01:05:48;;;;;;;23.05;2.92;;;5.60;64.80;;;;;;5068892;28;25070;-71
2022/04/09 01:08:15;;;;;;;27.73;3.70;;;5.70;64.10;;;;;;5059284;28;25065;-73
2022/04/09 01:10:44;;;;;;;24.75;4.38;;;5.70;62.90;;;;;;5048601;28;25068;-74
2022/04/09 01:13:10;;;;;;;26.40;3.63;;;5.80;62.60;;;;;;5043787;28;25057;-75
2022/04/09 01:15:35;;;;;;;14.75;2.95;;;5.80;61.20;;;;;;5059679;28;25149;-73
2022/04/09 01:18:01;;;;;;;19.15;4.50;;;5.90;59.10;;;;;;5058001;28;25078;-74
2022/04/09 01:20:28;;;;;;;20.58;4.07;;;5.90;58.90;;;;;;5057843;28;25086;-73
2022/04/09 01:22:54;;;;;;;19.90;4.15;;;6.00;58.40;;;;;;5059669;28;25065;-72
2022/04/09 01:25:20;;;;;;;14.50;3.22;;;6.00;58.00;;;;;;5059616;28;25063;-73
2022/04/09 01:27:47;;;;;;;17.25;3.20;;;6.10;57.50;;;;;;5057992;28;25065;-74
2022/04/09 01:30:13;;;;;;;26.67;3.83;;;6.00;57.80;;;;;;5052635;28;25126;-72
2022/04/09 01:32:39;;;;;;;14.30;2.92;;;6.00;57.70;;;;;;5056140;28;25048;-71
2022/04/09 01:35:05;;;;;;;26.88;4.28;;;6.00;57.70;;;;;;5060748;28;25076;-74
2022/04/09 01:37:31;;;;;;;17.67;3.55;;;5.90;58.10;;;;;;5054665;28;25056;-72
2022/04/09 01:39:57;;;;;;;20.40;3.53;;;5.80;58.70;;;;;;5064242;28;25077;-74
2022/04/09 01:42:25;;;;;;;15.25;3.35;;;5.80;58.90;;;;;;5057904;28;25090;-72
2022/04/09 01:44:50;;;;;;;16.90;3.50;;;5.80;59.20;;;;;;5057407;28;25057;-73
2022/04/09 01:47:16;;;;;;;16.17;3.17;;;5.80;59.10;;;;;;5063697;28;25057;-73
2022/04/09 01:49:42;;;;;;;14.70;2.97;;;5.80;59.60;;;;;;5064544;28;25082;-74
2022/04/09 01:52:08;;;;;;;18.15;3.60;;;5.80;60.00;;;;;;5056741;28;25072;-73
2022/04/09 01:54:34;;;;;;;22.83;3.75;;;5.70;60.70;;;;;;5055107;28;25104;-74
2022/04/09 01:57:00;;;;;;;19.27;3.67;;;5.70;62.30;;;;;;5052543;28;25081;-74
2022/04/09 01:59:26;;;;;;;19.42;3.15;;;5.70;63.60;;;;;;5057466;28;25090;-73
2022/04/09 02:01:51;;;;;;;26.35;4.22;;;5.70;64.00;;;;;;5051387;28;25177;-74
2022/04/09 02:04:17;;;;;;;23.63;5.20;;;5.80;64.20;;;;;;5053178;28;25120;-75
2022/04/09 02:06:42;;;;;;;30.40;3.90;;;5.80;64.90;;;;;;5061452;28;25077;-73
2022/04/09 02:09:11;;;;;;;24.00;4.35;;;5.80;65.10;;;;;;5064255;28;25072;-72
2022/04/09 02:11:39;;;;;;;25.50;4.78;;;5.80;65.80;;;;;;5062978;28;25116;-74
2022/04/09 02:14:07;;;;;;;19.90;4.18;;;5.80;64.40;;;;;;5064405;28;25068;-73
2022/04/09 02:16:33;;;;;;;27.02;3.92;;;5.80;63.10;;;;;;5054747;28;25105;-74
2022/04/09 02:18:59;;;;;;;14.68;3.00;;;5.90;59.80;;;;;;5062321;28;25169;-74
2022/04/09 02:21:25;;;;;;;14.70;2.50;;;6.00;57.10;;;;;;5061446;28;25073;-72
2022/04/09 02:23:50;;;;;;;24.63;3.05;;;6.00;55.50;;;;;;5055525;28;25049;-72
2022/04/09 02:26:16;;;;;;;10.30;2.20;;;6.00;53.00;;;;;;5061468;28;25141;-72
2022/04/09 02:28:42;;;;;;;14.65;2.17;;;6.00;53.30;;;;;;5051403;28;25104;-71
2022/04/09 02:31:07;;;;;;;10.70;2.45;;;5.90;52.20;;;;;;5050349;28;25130;-74
2022/04/09 02:33:33;;;;;;;13.98;2.50;;;5.90;51.20;;;;;;5054316;28;25069;-72
2022/04/09 02:35:59;;;;;;;13.70;2.15;;;6.00;50.90;;;;;;5059100;28;25091;-74
2022/04/09 02:38:25;;;;;;;10.45;2.45;;;5.90;51.20;;;;;;5049925;28;25065;-73
2022/04/09 02:40:51;;;;;;;14.27;2.50;;;5.90;52.00;;;;;;5057474;28;25140;-72
2022/04/09 02:43:16;;;;;;;13.38;2.67;;;5.90;52.50;;;;;;5066222;28;25079;-72
2022/04/09 02:45:42;;;;;;;12.60;2.03;;;5.90;53.30;;;;;;5064990;28;25079;-72
2022/04/09 02:48:08;;;;;;;13.73;2.50;;;5.80;54.60;;;;;;5059457;28;25144;-72
2022/04/09 02:50:34;;;;;;;10.80;2.67;;;5.80;55.70;;;;;;5042498;28;25064;-72
2022/04/09 02:53:00;;;;;;;26.42;3.05;;;5.70;57.40;;;;;;5057340;28;25049;-73
2022/04/09 02:55:25;;;;;;;12.75;2.97;;;5.60;58.50;;;;;;5064383;28;25159;-72
2022/04/09 02:57:51;;;;;;;15.38;2.60;;;5.60;60.00;;;;;;5058302;28;25172;-73
2022/04/09 03:00:17;;;;;;;21.02;3.17;;;5.50;60.60;;;;;;5055682;28;25161;-75
2022/04/09 03:02:43;;;;;;;12.38;2.63;;;5.50;61.40;;;;;;5056198;28;25061;-73
2022/04/09 03:05:10;;;;;;;14.80;2.75;;;5.50;62.10;;;;;;5054031;28;25161;-73
2022/04/09 03:07:35;;;;;;;11.40;3.13;;;5.50;62.70;;;;;;5033354;28;25065;-72
2022/04/09 03:10:02;;;;;;;6.47;2.40;;;5.50;62.70;;;;;;5051910;28;25057;-73
2022/04/09 03:12:28;;;;;;;19.13;3.08;;;5.50;62.70;;;;;;5055451;28;25067;-74
2022/04/09 03:14:54;;;;;;;18.27;3.05;;;5.50;62.70;;;;;;5045184;28;25060;-72
2022/04/09 03:17:19;;;;;;;13.00;2.80;;;5.40;62.60;;;;;;5055645;28;25159;-73
2022/04/09 03:19:45;;;;;;;25.88;2.90;;;5.40;62.50;;;;;;5059631;28;25143;-72
2022/04/09 03:22:11;;;;;;;15.23;3.08;;;5.40;63.20;;;;;;5041920;28;25117;-72
2022/04/09 03:24:37;;;;;;;10.35;2.97;;;5.30;63.10;;;;;;5060220;28;25050;-74
2022/04/09 03:27:02;;;;;;;14.25;1.88;;;5.30;63.40;;;;;;5049962;28;25115;-73
2022/04/09 03:29:28;;;;;;;13.57;2.80;;;5.30;63.40;;;;;;5054210;28;25144;-73
2022/04/09 03:31:54;;;;;;;13.95;3.17;;;5.30;63.30;;;;;;5040359;28;25060;-74
2022/04/09 03:34:19;;;;;;;14.70;3.70;;;5.30;63.10;;;;;;5050740;28;25079;-72
2022/04/09 03:36:45;;;;;;;13.70;2.13;;;5.30;62.90;;;;;;5055961;28;25069;-72
2022/04/09 03:39:10;;;;;;;17.25;2.83;;;5.30;63.20;;;;;;5049806;28;25083;-73
2022/04/09 03:41:36;;;;;;;15.70;2.75;;;5.20;63.20;;;;;;5058704;28;25067;-72
2022/04/09 03:44:02;;;;;;;17.95;3.15;;;5.20;63.20;;;;;;5054485;28;25060;-71
2022/04/09 03:46:27;;;;;;;17.65;2.70;;;5.20;62.70;;;;;;5058412;28;25094;-72
2022/04/09 03:48:53;;;;;;;16.83;2.72;;;5.20;61.80;;;;;;5079643;28;25056;-74
2022/04/09 03:51:18;;;;;;;14.95;2.63;;;5.20;61.20;;;;;;5085216;28;25056;-72
2022/04/09 03:53:44;;;;;;;21.58;3.90;;;5.30;60.70;;;;;;5074069;28;25062;-73
2022/04/09 03:56:10;;;;;;;12.48;3.15;;;5.30;60.60;;;;;;5083064;28;25066;-74
2022/04/09 03:58:38;;;;;;;12.85;2.72;;;5.30;60.30;;;;;;5043463;28;25068;-73
2022/04/09 04:01:04;;;;;;;16.52;2.90;;;5.40;59.80;;;;;;5056727;28;25103;-73
2022/04/09 04:03:29;;;;;;;22.33;3.20;;;5.40;59.60;;;;;;5053760;28;25090;-73
2022/04/09 04:05:55;;;;;;;15.23;3.40;;;5.40;59.60;;;;;;5064032;28;25171;-73
2022/04/09 04:08:21;;;;;;;17.58;2.65;;;5.40;59.60;;;;;;5053995;28;25140;-72
2022/04/09 04:10:47;;;;;;;16.90;3.25;;;5.50;60.00;;;;;;5055803;28;25101;-72
2022/04/09 04:13:13;;;;;;;13.93;2.90;;;5.50;60.10;;;;;;5064194;28;25062;-73
2022/04/09 04:15:40;;;;;;;17.02;3.38;;;5.60;59.90;;;;;;5065264;28;25067;-73
2022/04/09 04:18:06;;;;;;;19.27;3.08;;;5.60;60.00;;;;;;5072867;28;25068;-72
2022/04/09 04:20:32;;;;;;;24.00;3.45;;;5.60;59.70;;;;;;5064685;28;25057;-71
2022/04/09 04:22:58;;;;;;;23.02;3.42;;;5.70;59.80;;;;;;5057314;28;25061;-73
2022/04/09 04:25:25;;;;;;;15.68;3.20;;;5.70;60.20;;;;;;5058096;28;25060;-71
2022/04/09 04:27:50;;;;;;;17.80;3.15;;;5.70;60.00;;;;;;5074882;28;25097;-73
2022/04/09 04:30:16;;;;;;;19.20;3.33;;;5.70;60.50;;;;;;5068143;28;25106;-73
2022/04/09 04:32:42;;;;;;;16.70;3.30;;;5.60;60.80;;;;;;5064103;28;25071;-73
2022/04/09 04:35:09;;;;;;;13.77;3.00;;;5.70;61.00;;;;;;5061263;28;25110;-74
2022/04/09 04:37:42;;;;;;;15.55;3.03;;;5.60;60.80;;;;;;5064388;28;25079;-75
2022/04/09 04:40:09;;;;;;;23.92;3.78;;;5.70;60.50;;;;;;5055293;28;25099;-74
2022/04/09 04:42:35;;;;;;;15.13;2.97;;;5.70;60.60;;;;;;5050949;28;25171;-73
2022/04/09 04:45:01;;;;;;;15.70;3.13;;;5.70;60.00;;;;;;5061548;28;25103;-73
2022/04/09 04:47:27;;;;;;;21.35;3.15;;;5.70;60.00;;;;;;5040661;28;25151;-74
2022/04/09 04:49:52;;;;;;;16.65;2.75;;;5.70;59.70;;;;;;5058209;28;25072;-72
2022/04/09 04:52:19;;;;;;;19.63;2.88;;;5.70;59.50;;;;;;5055420;28;25056;-72
2022/04/09 04:54:44;;;;;;;18.08;3.47;;;5.70;59.60;;;;;;5061664;28;25078;-73
2022/04/09 04:57:10;;;;;;;21.70;3.33;;;5.70;59.80;;;;;;5057270;28;25067;-73
2022/04/09 04:59:35;;;;;;;15.25;3.22;;;5.70;59.80;;;;;;5059663;28;25147;-71
2022/04/09 05:02:01;;;;;;;18.08;2.83;;;5.70;59.60;;;;;;5056781;28;25138;-72
2022/04/09 05:04:27;;;;;;;17.98;3.40;;;5.80;59.80;;;;;;5059121;28;25072;-72
2022/04/09 05:06:52;;;;;;;15.07;2.75;;;5.70;60.00;;;;;;5060641;28;25075;-73
2022/04/09 05:09:18;;;;;;;11.18;2.60;;;5.80;60.70;;;;;;5059397;28;25058;-72
2022/04/09 05:11:44;;;;;;;21.17;3.63;;;5.80;60.40;;;;;;5062797;28;25091;-70
2022/04/09 05:14:10;;;;;;;17.40;2.97;;;5.80;60.70;;;;;;5057132;28;25073;-73
2022/04/09 05:16:35;;;;;;;14.13;2.53;;;5.90;61.20;;;;;;5061118;28;25064;-73
2022/04/09 05:19:01;;;;;;;23.67;3.05;;;5.80;61.50;;;;;;5060895;28;25074;-72
2022/04/09 05:21:27;;;;;;;20.08;3.10;;;5.80;62.30;;;;;;5054794;28;25083;-73
2022/04/09 05:23:52;;;;;;;22.85;3.72;;;5.70;63.10;;;;;;5039148;28;25081;-74
2022/04/09 05:26:18;;;;;;;13.73;2.80;;;5.80;64.00;;;;;;5058286;28;25059;-72
2022/04/09 05:28:44;;;;;;;14.77;3.22;;;5.70;65.20;;;;;;5059485;28;25130;-74
2022/04/09 05:31:11;;;;;;;21.05;4.32;;;5.60;66.30;;;;;;5062889;28;25103;-73
2022/04/09 05:33:38;;;;;;;20.45;3.50;;;5.60;67.30;;;;;;5061764;28;25147;-71
2022/04/09 05:36:05;;;;;;;26.65;4.72;;;5.70;67.70;;;;;;5054663;28;25160;-73
2022/04/09 05:38:31;;;;;;;20.10;4.22;;;5.70;68.00;;;;;;5068906;28;25053;-73
2022/04/09 05:40:57;;;;;;;25.15;4.18;;;5.70;69.40;;;;;;5078008;28;25077;-73
2022/04/09 05:43:23;;;;;;;18.80;3.80;;;5.70;69.90;;;;;;5062981;28;25049;-72
2022/04/09 05:45:49;;;;;;;24.13;5.60;;;5.60;72.10;;;;;;5041664;28;25126;-72
2022/04/09 05:48:15;;;;;;;14.05;3.70;;;5.60;73.60;;;;;;5059057;28;25065;-72
2022/04/09 05:50:40;;;;;;;28.40;4.05;;;5.60;74.00;;;;;;5059641;28;25069;-72
2022/04/09 05:53:06;;;;;;;15.98;3.95;;;5.60;74.40;;;;;;5061519;28;25096;-72
2022/04/09 05:55:32;;;;;;;21.13;4.15;;;5.70;74.10;;;;;;5059026;28;25086;-71
2022/04/09 05:57:57;;;;;;;17.08;3.90;;;5.80;73.00;;;;;;5058048;28;25071;-73
2022/04/09 06:00:23;;;;;;;22.33;4.18;;;5.80;72.50;;;;;;5057370;28;25186;-73
2022/04/09 06:02:49;;;;;;;25.40;4.82;;;5.80;72.00;;;;;;5059905;28;25103;-74
2022/04/09 06:05:15;;;;;;;21.70;3.65;;;5.90;71.90;;;;;;5059369;28;25144;-74
2022/04/09 06:07:40;;;;;;;30.50;4.75;;;5.90;71.90;;;;;;5064829;28;25131;-75
2022/04/09 06:10:08;;;;;;;25.15;4.30;;;5.90;71.50;;;;;;5064292;28;25072;-74
2022/04/09 06:12:34;;;;;;;21.67;4.25;;;5.90;71.10;;;;;;5059667;28;25063;-72
2022/04/09 06:15:01;;;;;;;26.25;4.97;;;5.90;71.10;;;;;;5061191;28;25097;-74
2022/04/09 06:17:27;;;;;;;19.67;4.65;;;5.90;70.90;;;;;;5056056;28;25067;-73
2022/04/09 06:19:53;;;;;;;24.48;4.18;;;5.90;70.90;;;;;;5059237;28;25067;-77
2022/04/09 06:22:19;;;;;;;21.20;3.88;;;5.90;70.70;;;;;;5047913;28;25108;-72
2022/04/09 06:24:44;;;;;;;19.52;4.03;;;5.90;69.90;;;;;;5054505;28;25153;-74
2022/04/09 06:27:13;;;;;;;24.63;4.03;;;5.90;69.50;;;;;;5041271;28;25068;-74
2022/04/09 06:29:39;;;;;;;19.60;3.60;;;5.90;68.50;;;;;;5061672;28;25145;-71
2022/04/09 06:32:05;;;;;;;13.32;2.85;;;6.00;67.80;;;;;;5061392;28;25063;-73
2022/04/09 06:34:31;;;;;;;23.60;3.78;;;6.00;67.20;;;;;;5065753;28;25076;-74
2022/04/09 06:36:56;;;;;;;20.77;4.00;;;6.00;67.70;;;;;;5063256;28;25128;-74
2022/04/09 06:39:23;;;;;;;24.70;4.63;;;6.00;66.80;;;;;;5058176;28;25061;-75
2022/04/09 06:41:49;;;;;;;23.38;4.25;;;6.10;65.90;;;;;;5049931;28;25062;-71
2022/04/09 06:44:15;;;;;;;18.35;3.55;;;6.20;65.40;;;;;;5051053;28;25072;-74
2022/04/09 06:46:43;;;;;;;21.77;3.60;;;6.30;64.90;;;;;;5059306;28;25060;-74
2022/04/09 06:49:11;;;;;;;22.45;4.13;;;6.40;65.00;;;;;;5052344;28;25088;-76
2022/04/09 06:51:38;;;;;;;18.40;4.30;;;6.50;63.70;;;;;;5052035;28;25089;-73
2022/04/09 06:54:04;;;;;;;21.50;3.22;;;6.60;63.10;;;;;;5056751;28;25072;-74
2022/04/09 06:56:29;;;;;;;16.70;3.53;;;6.70;63.00;;;;;;5058440;28;25159;-73
2022/04/09 06:58:55;;;;;;;22.90;3.63;;;6.70;61.70;;;;;;5045528;28;25067;-73
2022/04/09 07:01:21;;;;;;;22.67;3.67;;;6.80;61.40;;;;;;5056581;28;25092;-74
2022/04/09 07:03:46;;;;;;;16.02;2.88;;;6.90;60.90;;;;;;5055667;28;25062;-74
2022/04/09 07:06:13;;;;;;;22.23;3.70;;;7.00;60.30;;;;;;5053631;28;25059;-73
2022/04/09 07:08:39;;;;;;;11.93;3.80;;;7.10;59.60;;;;;;5059353;28;25052;-74
2022/04/09 07:11:05;;;;;;;17.40;3.40;;;7.20;58.50;;;;;;5053422;28;25053;-75
2022/04/09 07:13:31;;;;;;;19.48;3.47;;;7.20;57.80;;;;;;5050993;28;25144;-74
2022/04/09 07:15:57;;;;;;;20.67;3.80;;;7.10;56.80;;;;;;5058066;28;25092;-72
2022/04/09 07:18:23;;;;;;;17.60;2.97;;;7.10;57.40;;;;;;5058534;28;25155;-73
2022/04/09 07:20:48;;;;;;;13.75;2.88;;;7.10;56.40;;;;;;5055573;28;25079;-74
2022/04/09 07:23:14;;;;;;;13.90;3.20;;;7.00;55.00;;;;;;5051095;28;25098;-72
2022/04/09 07:25:42;;;;;;;13.93;3.67;;;7.10;55.40;;;;;;5056596;28;25098;-75
2022/04/09 07:28:07;;;;;;;10.27;3.25;;;7.20;54.20;;;;;;5060609;28;25162;-74
2022/04/09 07:30:33;;;;;;;12.38;3.20;;;7.40;54.20;;;;;;5046328;28;25115;-73
2022/04/09 07:32:59;;;;;;;17.52;2.92;;;7.50;53.40;;;;;;5058228;28;25094;-76
2022/04/09 07:35:26;;;;;;;9.85;2.47;;;7.60;51.80;;;;;;5059885;28;25136;-75
2022/04/09 07:37:58;;;;;;;13.43;3.08;;;7.80;51.20;;;;;;5058880;28;25100;-77
2022/04/09 07:40:25;;;;;;;11.75;3.60;;;7.90;48.60;;;;;;5053283;28;25058;-74
2022/04/09 07:42:51;;;;;;;12.23;2.97;;;8.00;46.40;;;;;;5058410;28;25057;-75
2022/04/09 07:45:18;;;;;;;13.13;3.28;;;8.10;44.80;;;;;;5061220;28;25098;-75
2022/04/09 07:47:44;;;;;;;14.95;3.72;;;8.20;44.30;;;;;;5040192;28;25066;-74
2022/04/09 07:50:11;;;;;;;17.30;3.35;;;8.20;44.60;;;;;;5053146;28;25077;-74
2022/04/09 07:52:42;;;;;;;14.27;2.55;;;8.20;45.70;;;;;;5042208;28;25061;-79
2022/04/09 07:55:11;;;;;;;16.30;2.78;;;8.10;44.70;;;;;;5048954;28;25096;-75
2022/04/09 07:57:37;;;;;;;16.58;3.33;;;8.00;44.60;;;;;;5057820;28;25076;-74
2022/04/09 08:00:03;;;;;;;10.00;2.97;;;8.00;44.00;;;;;;5061071;28;25136;-76
2022/04/09 08:02:29;;;;;;;10.23;2.45;;;7.90;44.00;;;;;;5058165;28;25112;-75
2022/04/09 08:04:54;;;;;;;9.88;2.25;;;8.00;41.10;;;;;;5056514;28;25080;-75
2022/04/09 08:07:20;;;;;;;17.02;3.15;;;8.20;42.30;;;;;;5050012;28;25111;-76
2022/04/09 08:09:45;;;;;;;18.60;3.47;;;8.40;40.50;;;;;;5058059;28;25108;-75
2022/04/09 08:12:15;;;;;;;15.65;2.63;;;8.70;41.10;;;;;;5062223;28;25071;-72
2022/04/09 08:14:42;;;;;;;13.55;2.50;;;8.60;43.40;;;;;;5055290;28;25051;-72
2022/04/09 08:17:09;;;;;;;11.55;2.25;;;7.50;50.00;;;;;;5064104;28;25156;-74
2022/04/09 08:19:35;;;;;;;16.77;2.85;;;6.40;60.90;;;;;;5070816;28;25072;-75
2022/04/09 08:22:02;;;;;;;17.45;2.65;;;5.80;67.10;;;;;;5062472;28;25052;-77
2022/04/09 08:24:28;;;;;;;8.23;2.10;;;5.70;70.00;;;;;;5063901;28;25080;-78
2022/04/09 08:26:53;;;;;;;5.30;1.42;;;5.70;70.90;;;;;;5065570;28;25100;-76
2022/04/09 08:29:20;;;;;;;10.20;1.55;;;5.70;68.90;;;;;;5058074;28;25089;-76
2022/04/09 08:31:47;;;;;;;6.60;1.45;;;5.70;70.20;;;;;;5059718;28;25070;-76
2022/04/09 08:34:17;;;;;;;5.03;1.15;;;5.70;69.30;;;;;;5059320;28;25134;-77
2022/04/09 08:36:44;;;;;;;5.32;1.50;;;6.10;71.10;;;;;;5044012;28;25145;-75
2022/04/09 08:39:10;;;;;;;9.73;1.73;;;6.40;69.30;;;;;;5062249;28;25105;-76
2022/04/09 08:41:44;;;;;;;7.25;2.00;;;6.70;70.20;;;;;;5062074;28;25149;-77
2022/04/09 08:44:11;;;;;;;7.20;1.83;;;7.00;67.70;;;;;;5052252;28;25129;-77
2022/04/09 08:46:39;;;;;;;5.47;1.60;;;7.30;65.80;;;;;;5062643;28;25106;-78
2022/04/09 08:49:06;;;;;;;8.32;2.00;;;7.20;65.80;;;;;;5061039;28;25114;-77
2022/04/09 08:51:33;;;;;;;10.07;2.50;;;7.40;68.60;;;;;;5055523;28;25052;-74
2022/04/09 08:54:04;;;;;;;9.02;2.30;;;7.50;66.10;;;;;;5055997;28;25104;-75
2022/04/09 08:56:37;;;;;;;12.43;2.42;;;7.80;66.10;;;;;;5058810;28;25094;-77
2022/04/09 08:59:03;;;;;;;8.43;2.22;;;7.90;61.80;;;;;;5058831;28;25050;-75
2022/04/09 09:01:30;;;;;;;13.60;2.95;;;8.30;52.40;;;;;;5065215;28;25071;-75
2022/04/09 09:03:56;;;;;;;8.18;2.33;;;8.50;48.60;;;;;;5052533;28;25086;-76
2022/04/09 09:06:35;;;;;;;5.20;1.88;;;8.70;44.70;;;;;;5053858;28;25160;-77
2022/04/09 09:09:04;;;;;;;9.50;1.83;;;8.90;42.10;;;;;;5062340;28;25093;-75
2022/04/09 09:11:47;;;;;;;9.32;2.00;;;9.00;38.90;;;;;;5060520;28;25060;-75
2022/04/09 09:14:25;;;;;;;8.18;1.80;;;9.10;34.70;;;;;;5054204;28;25076;-74
2022/04/09 09:16:51;;;;;;;12.07;2.05;;;9.00;35.10;;;;;;5060686;28;25065;-76
2022/04/09 09:19:17;;;;;;;9.52;2.38;;;9.10;34.60;;;;;;5051895;28;25132;-73
2022/04/09 09:21:55;;;;;;;14.02;3.05;;;9.00;34.00;;;;;;5062724;28;25100;-76
2022/04/09 09:24:21;;;;;;;7.78;1.98;;;9.10;30.70;;;;;;5060024;28;25069;-75
2022/04/09 09:26:57;;;;;;;9.35;2.20;;;8.90;33.80;;;;;;5067457;28;25078;-75
2022/04/09 09:29:26;;;;;;;10.98;2.03;;;8.70;35.30;;;;;;5062722;28;25075;-75
2022/04/09 09:31:52;;;;;;;6.00;1.92;;;8.70;36.70;;;;;;5052743;28;25060;-75
2022/04/09 09:34:19;;;;;;;16.08;2.55;;;9.00;36.20;;;;;;5073754;28;25062;-74
2022/04/09 09:36:45;;;;;;;7.55;2.03;;;9.10;33.30;;;;;;5079702;28;25061;-73
2022/04/09 09:39:15;;;;;;;14.55;3.03;;;9.50;35.50;;;;;;5070115;28;25058;-76
2022/04/09 09:41:51;;;;;;;14.13;2.33;;;9.40;34.40;;;;;;5065448;28;25086;-75
2022/04/09 09:44:19;;;;;;;7.53;2.15;;;9.80;31.60;;;;;;5069276;28;25063;-73
2022/04/09 09:46:48;;;;;;;4.72;1.60;;;10.00;28.10;;;;;;5071303;28;25057;-76
2022/04/09 09:49:15;;;;;;;6.43;1.67;;;9.90;28.30;;;;;;5058954;28;25074;-75
2022/04/09 09:51:42;;;;;;;11.23;2.45;;;10.20;28.70;;;;;;5063057;28;25088;-74
2022/04/09 09:54:13;;;;;;;11.68;2.10;;;9.30;28.10;;;;;;5043198;28;25051;-75
2022/04/09 09:56:41;;;;;;;11.07;1.63;;;9.80;31.70;;;;;;5061946;28;25138;-74
2022/04/09 09:59:07;;;;;;;6.20;1.50;;;10.10;30.60;;;;;;5064663;28;25052;-74
2022/04/09 10:01:37;;;;;;;6.43;1.67;;;9.50;26.90;;;;;;5082975;28;25174;-74
2022/04/09 10:04:04;;;;;;;6.18;1.70;;;9.20;28.80;;;;;;5066376;28;25074;-74
2022/04/09 10:06:32;;;;;;;9.77;2.03;;;8.90;27.80;;;;;;5059534;28;25060;-75
2022/04/09 10:08:59;;;;;;;8.15;1.55;;;9.20;29.80;;;;;;5072687;28;25136;-76
2022/04/09 10:11:27;;;;;;;7.57;1.77;;;9.80;30.00;;;;;;5071836;28;25047;-75
2022/04/09 10:13:55;;;;;;;8.65;2.00;;;10.10;27.10;;;;;;5072477;28;25104;-74
2022/04/09 10:16:22;;;;;;;8.35;1.73;;;10.10;23.70;;;;;;5070705;28;25131;-76
2022/04/09 10:18:49;;;;;;;3.25;1.08;;;9.70;24.10;;;;;;5070710;28;25054;-74
2022/04/09 10:21:18;;;;;;;8.75;1.33;;;9.70;23.90;;;;;;5071526;28;25072;-76
2022/04/09 10:23:45;;;;;;;4.60;1.33;;;9.90;23.70;;;;;;5070259;28;25066;-74
2022/04/09 10:26:11;;;;;;;4.72;1.52;;;9.60;23.30;;;;;;5071103;28;25050;-73
2022/04/09 10:28:39;;;;;;;4.53;1.35;;;9.70;23.40;;;;;;5071238;28;25132;-74
2022/04/09 10:31:23;;;;;;;5.25;1.70;;;9.60;21.60;;;;;;5071483;28;25153;-75
2022/04/09 10:33:56;;;;;;;5.60;1.70;;;9.60;23.10;;;;;;5064115;28;25062;-75
2022/04/09 10:36:40;;;;;;;12.90;1.85;;;10.30;23.90;;;;;;5086620;28;25068;-73
2022/04/09 10:39:22;;;;;;;2.40;1.27;;;10.20;20.50;;;;;;5063751;28;25073;-76
2022/04/09 10:41:48;;;;;;;4.75;1.08;;;10.30;22.30;;;;;;5096161;28;25057;-76
2022/04/09 10:44:35;;;;;;;6.22;1.77;;;10.60;18.80;;;;;;5097180;28;25072;-75
2022/04/09 10:47:03;;;;;;;7.45;2.10;;;10.50;20.80;;;;;;5088645;28;25060;-77
2022/04/09 10:49:29;;;;;;;1.63;0.90;;;10.00;18.00;;;;;;5084517;28;25121;-74
2022/04/09 10:52:03;;;;;;;5.13;1.20;;;10.20;19.90;;;;;;5062823;28;25079;-76
2022/04/09 10:54:29;;;;;;;3.65;1.08;;;10.60;17.50;;;;;;5071633;28;25100;-74
2022/04/09 10:56:54;;;;;;;4.10;1.08;;;10.60;17.50;;;;;;5055419;28;25057;-74
2022/04/09 10:59:20;;;;;;;5.93;1.10;;;11.00;11.40;;;;;;5073721;28;25051;-75
2022/04/09 11:01:50;;;;;;;5.75;1.42;;;11.10;14.80;;;;;;5074216;28;25075;-75
2022/04/09 11:04:36;;;;;;;4.75;1.27;;;11.50;13.40;;;;;;5071796;28;25059;-74
2022/04/09 11:07:05;;;;;;;5.57;1.50;;;10.70;11.00;;;;;;5070928;28;25064;-73
2022/04/09 11:09:54;;;;;;;2.15;1.00;;;9.70;11.70;;;;;;5055470;28;25140;-73
2022/04/09 11:12:37;;;;;;;7.22;1.10;;;9.70;12.10;;;;;;5071416;28;25064;-76
2022/04/09 11:15:06;;;;;;;5.63;1.13;;;9.30;14.00;;;;;;5051171;28;25372;-72
2022/04/09 11:17:34;;;;;;;4.35;0.98;;;9.40;13.30;;;;;;5068615;28;25078;-71
2022/04/09 11:20:11;;;;;;;5.28;1.20;;;9.50;10.00;;;;;;5056671;28;25145;-74
2022/04/09 11:22:38;;;;;;;5.15;1.50;;;10.30;12.00;;;;;;5074370;28;25063;-75
2022/04/09 11:25:21;;;;;;;10.30;1.50;;;10.90;10.80;;;;;;5072776;28;25112;-74
2022/04/09 11:27:47;;;;;;;4.43;1.50;;;11.00;9.70;;;;;;5070667;28;25070;-73
2022/04/09 11:30:13;;;;;;;6.65;1.42;;;10.70;9.40;;;;;;5054265;28;25109;-76
2022/04/09 11:32:39;;;;;;;7.88;1.67;;;10.10;10.90;;;;;;5046919;28;25065;-75
2022/04/09 11:35:10;;;;;;;5.75;1.25;;;10.40;11.40;;;;;;5051529;28;25196;-73
2022/04/09 11:37:41;;;;;;;3.97;1.65;;;9.80;11.30;;;;;;5070813;28;25079;-75
2022/04/09 11:40:08;;;;;;;7.68;2.08;;;9.50;14.30;;;;;;5070243;28;25075;-73
2022/04/09 11:42:44;;;;;;;5.95;1.27;;;9.50;15.80;;;;;;5070100;28;25079;-75
2022/04/09 11:45:31;;;;;;;3.78;1.25;;;9.50;15.50;;;;;;5070773;28;25048;-77
2022/04/09 11:48:01;;;;;;;7.72;1.40;;;9.40;12.70;;;;;;5070583;28;25073;-75
2022/04/09 11:50:31;;;;;;;5.10;1.15;;;9.40;14.20;;;;;;5071424;28;25158;-74
2022/04/09 11:53:26;;;;;;;9.38;1.83;;;9.40;14.20;;;;;;5054458;28;25088;-76
2022/04/09 11:55:59;;;;;;;6.38;1.60;;;9.40;15.60;;;;;;5072241;28;25072;-74
2022/04/09 11:58:33;;;;;;;6.93;1.63;;;9.20;16.60;;;;;;5074801;28;25055;-72
2022/04/09 12:00:59;;;;;;;3.67;1.20;;;9.10;17.10;;;;;;5071478;28;25069;-76
2022/04/09 12:03:25;;;;;;;9.70;1.95;;;9.10;18.90;;;;;;5069214;28;25080;-75
2022/04/09 12:05:51;;;;;;;2.30;1.70;;;9.10;19.60;;;;;;5053967;28;25167;-75
2022/04/09 12:08:19;;;;;;;4.60;1.80;;;9.20;18.20;;;;;;5064106;28;25069;-74
2022/04/09 12:10:55;;;;;;;11.25;2.30;;;9.00;17.90;;;;;;5068540;28;25154;-75
2022/04/09 12:13:36;;;;;;;3.65;1.58;;;9.00;17.90;;;;;;5047661;28;25143;-72
2022/04/09 12:16:22;;;;;;;6.38;1.77;;;8.90;19.30;;;;;;5068138;28;25079;-73
2022/04/09 12:18:48;;;;;;;6.22;1.40;;;8.80;21.10;;;;;;5070913;28;25057;-74
2022/04/09 12:21:24;;;;;;;7.45;1.83;;;8.80;22.80;;;;;;5070613;28;25051;-74
2022/04/09 12:24:00;;;;;;;7.03;2.47;;;8.80;22.70;;;;;;5072329;28;25076;-75
2022/04/09 12:26:26;;;;;;;6.97;1.90;;;8.90;23.50;;;;;;5070232;28;25059;-74
2022/04/09 12:29:08;;;;;;;7.18;2.15;;;9.10;18.60;;;;;;5071169;28;25109;-73
2022/04/09 12:31:36;;;;;;;7.30;1.42;;;9.10;17.30;;;;;;5070928;28;25069;-75
2022/04/09 12:34:03;;;;;;;3.78;1.80;;;8.90;16.50;;;;;;5052277;28;25072;-74
2022/04/09 12:36:29;;;;;;;6.05;2.67;;;9.00;15.70;;;;;;5060832;28;25078;-72
2022/04/09 12:38:55;;;;;;;7.43;1.70;;;9.40;16.00;;;;;;5071470;28;25077;-71
2022/04/09 12:41:21;;;;;;;6.43;1.70;;;9.40;15.80;;;;;;5072959;28;25071;-75
2022/04/09 12:43:47;;;;;;;11.23;1.65;;;9.20;15.00;;;;;;5070831;28;25165;-75
2022/04/09 12:46:18;;;;;;;6.78;1.65;;;9.30;16.90;;;;;;5071229;28;25095;-76
2022/04/09 12:48:49;;;;;;;12.10;1.90;;;9.10;15.30;;;;;;5070291;28;25066;-76
2022/04/09 12:51:25;;;;;;;5.88;2.05;;;9.30;14.90;;;;;;5037915;28;25082;-76
2022/04/09 12:53:55;;;;;;;7.20;1.10;;;9.50;12.40;;;;;;5051865;28;25076;-74